Terminal Aerodrome Forecast
Issued by NWS

Home | Current Version | Previous Version | Text Only | Print | Product List | Glossary On
Versions: 1 2 3 4 5 6 7 8 9 10 11 12 13 14 15 16 17 18 19 20 21 22 23 24 25 26 27
000
FTUS41 KBUF 292108 AAA
TAFJHW
TAF AMD
KJHW 292108Z 2921/3018 20006KT P6SM SCT050
     FM292200 30005KT P6SM SCT060
     FM300600 24005KT P6SM VCSH BKN035
     FM301000 28007KT P6SM BKN200
     FM301500 28012G18KT P6SM SCT250
      AMD LTD TO CLD VIS AND WIND=

USA.gov is the U.S. government's official web portal to all federal, state and local government web resources and services.